Time;durP1;ratioP1;P1;durP2;ratioP2;P2;SDS_P1;SDS_P2;PMS_P1;PMS_P2;Temp;Humidity;BMP_temperature;BMP_pressure;BME280_temperature;BME280_humidity;BME280_pressure;Samples;Min_cycle;Max_cycle;Signal;HPM_P1;HPM_P2
2022/01/17 00:00:10;;;;;;;13.48;1.58;;;8.00;99.90;;;;;;5033928;28;20057;-78
2022/01/17 00:02:37;;;;;;;12.50;2.08;;;8.10;99.60;;;;;;5034257;28;20029;-77
2022/01/17 00:05:04;;;;;;;10.15;2.00;;;8.00;99.60;;;;;;5035682;28;20056;-72
2022/01/17 00:07:30;;;;;;;12.05;1.70;;;8.00;99.70;;;;;;5042546;28;20021;-75
2022/01/17 00:09:59;;;;;;;16.45;2.17;;;8.10;99.80;;;;;;5041110;28;20029;-74
2022/01/17 00:12:26;;;;;;;15.20;3.25;;;8.10;99.60;;;;;;5034332;28;20041;-74
2022/01/17 00:14:54;;;;;;;12.48;1.83;;;8.10;99.60;;;;;;5034368;28;20113;-74
2022/01/17 00:19:47;;;;;;;16.17;3.05;;;8.10;99.70;;;;;;5034208;28;20022;-75
2022/01/17 00:22:15;;;;;;;17.00;3.20;;;8.10;99.90;;;;;;5034267;28;20385;-74
2022/01/17 00:24:42;;;;;;;18.33;3.25;;;8.10;99.90;;;;;;5034051;28;20032;-75
2022/01/17 00:27:08;;;;;;;17.52;3.45;;;8.10;99.90;;;;;;5034228;28;20381;-74
2022/01/17 00:29:34;;;;;;;16.88;3.35;;;8.10;99.90;;;;;;5034279;28;20029;-75
2022/01/17 00:32:01;;;;;;;17.70;2.83;;;8.10;99.90;;;;;;5033740;28;20029;-75
2022/01/17 00:34:27;;;;;;;18.77;3.38;;;8.10;99.90;;;;;;5033760;28;20025;-75
2022/01/17 00:36:53;;;;;;;15.60;2.80;;;8.10;99.90;;;;;;5033718;28;20080;-76
2022/01/17 00:39:19;;;;;;;20.25;3.28;;;8.10;99.90;;;;;;5034130;28;20025;-76
2022/01/17 00:41:45;;;;;;;17.35;3.45;;;8.10;99.90;;;;;;5034043;28;20036;-76
2022/01/17 00:44:11;;;;;;;18.55;3.45;;;8.10;99.90;;;;;;5033933;28;20048;-77
2022/01/17 00:46:37;;;;;;;20.75;3.15;;;8.10;99.90;;;;;;5032692;28;20092;-77
2022/01/17 00:49:03;;;;;;;15.48;3.55;;;8.10;99.90;;;;;;5033519;28;20492;-76
2022/01/17 00:51:29;;;;;;;21.05;4.35;;;8.20;99.90;;;;;;5033720;28;20068;-79
2022/01/17 00:53:54;;;;;;;21.38;3.75;;;8.20;99.90;;;;;;5032155;28;20045;-75
2022/01/17 00:56:22;;;;;;;22.05;3.78;;;8.10;99.90;;;;;;5031747;28;20457;-76
2022/01/17 00:58:48;;;;;;;19.10;3.65;;;8.20;99.90;;;;;;5031969;28;20108;-75
2022/01/17 01:01:14;;;;;;;24.60;3.67;;;8.10;99.90;;;;;;5031558;28;20084;-75
2022/01/17 01:03:40;;;;;;;18.88;4.15;;;8.20;99.90;;;;;;5034437;28;20499;-75
2022/01/17 01:06:05;;;;;;;20.25;4.30;;;8.20;99.90;;;;;;5036326;28;20064;-75
2022/01/17 01:08:31;;;;;;;15.23;2.90;;;8.10;99.90;;;;;;5034272;28;20037;-76
2022/01/17 01:10:57;;;;;;;18.00;3.30;;;8.10;99.90;;;;;;5033433;28;20388;-75
2022/01/17 01:13:24;;;;;;;19.08;3.38;;;8.00;99.90;;;;;;5033669;28;20374;-75
2022/01/17 01:29:09;;;;;;;22.42;3.17;;;7.90;99.90;;;;;;5033388;28;20397;-75
2022/01/17 01:31:46;;;;;;;19.80;3.88;;;7.90;99.90;;;;;;5033061;28;20029;-75
2022/01/17 01:34:13;;;;;;;21.48;2.70;;;8.00;99.90;;;;;;5033198;28;20021;-75
2022/01/17 01:36:39;;;;;;;16.38;2.33;;;8.00;99.90;;;;;;5033084;28;20033;-75
2022/01/17 01:39:06;;;;;;;14.63;2.17;;;8.00;99.50;;;;;;5033382;28;20033;-75
2022/01/17 01:41:43;;;;;;;18.98;2.72;;;8.00;99.60;;;;;;5033001;28;20041;-75
2022/01/17 01:44:17;;;;;;;24.42;2.85;;;8.00;99.50;;;;;;5033262;28;20033;-75
2022/01/17 01:46:45;;;;;;;19.23;2.13;;;8.00;99.00;;;;;;5032939;28;20033;-75
2022/01/17 01:49:12;;;;;;;18.08;2.70;;;7.90;97.90;;;;;;5032898;28;20034;-76
2022/01/17 01:51:38;;;;;;;13.88;1.98;;;7.90;98.10;;;;;;5033207;28;20041;-75
2022/01/17 01:54:04;;;;;;;14.93;1.52;;;7.90;98.20;;;;;;5032920;28;20029;-75
2022/01/17 01:56:31;;;;;;;18.33;1.73;;;7.90;97.50;;;;;;5032965;28;20021;-75
2022/01/17 01:58:56;;;;;;;12.40;1.67;;;7.90;97.30;;;;;;5033193;28;20030;-75
2022/01/17 02:01:22;;;;;;;14.68;2.10;;;7.80;97.10;;;;;;5033798;28;20042;-75
2022/01/17 02:03:49;;;;;;;14.25;1.92;;;7.80;96.90;;;;;;5051312;28;20026;-72
2022/01/17 02:06:15;;;;;;;18.67;1.48;;;7.80;97.20;;;;;;5043481;28;20083;-75
2022/01/17 02:08:40;;;;;;;10.13;1.30;;;7.80;97.30;;;;;;5033095;28;20473;-75
2022/01/17 02:11:10;;;;;;;10.75;1.35;;;7.80;97.00;;;;;;5032845;28;20450;-75
2022/01/17 02:13:38;;;;;;;12.20;1.40;;;7.80;96.70;;;;;;5033194;28;20033;-75
2022/01/17 02:16:06;;;;;;;19.08;1.48;;;7.70;96.90;;;;;;5032741;28;20107;-75
2022/01/17 02:18:32;;;;;;;15.15;1.95;;;7.80;96.80;;;;;;5035264;28;20101;-75
2022/01/17 02:23:39;;;;;;;13.57;1.95;;;7.80;96.80;;;;;;5036471;28;20022;-74
2022/01/17 02:26:05;;;;;;;10.15;1.05;;;7.80;96.90;;;;;;5036166;28;20033;-74
2022/01/17 02:28:35;;;;;;;19.90;1.48;;;7.80;97.10;;;;;;5036612;28;20030;-74
2022/01/17 02:31:02;;;;;;;18.55;1.65;;;7.80;97.00;;;;;;5036109;28;20198;-74
2022/01/17 02:33:28;;;;;;;17.50;1.38;;;7.80;96.70;;;;;;5036397;28;20056;-74
2022/01/17 02:35:54;;;;;;;15.77;2.10;;;7.80;96.70;;;;;;5036065;28;20126;-74
2022/01/17 02:38:19;;;;;;;14.77;1.65;;;7.80;96.50;;;;;;5036130;28;20021;-74
2022/01/17 02:40:45;;;;;;;16.73;1.42;;;7.80;96.50;;;;;;5036141;28;20111;-74
2022/01/17 02:43:11;;;;;;;14.98;1.52;;;7.80;96.40;;;;;;5036018;28;20351;-74
2022/01/17 02:48:19;;;;;;;12.98;1.50;;;7.80;96.20;;;;;;5036320;28;20030;-74
2022/01/17 02:50:45;;;;;;;11.80;1.23;;;7.80;96.30;;;;;;5035787;28;20573;-74
2022/01/17 02:53:12;;;;;;;18.10;1.55;;;7.80;96.70;;;;;;5035973;28;20113;-74
2022/01/17 02:55:40;;;;;;;8.60;1.00;;;7.90;96.40;;;;;;5035823;28;20032;-74
2022/01/17 02:58:06;;;;;;;17.55;1.48;;;7.90;96.20;;;;;;5035605;28;20108;-73
2022/01/17 03:00:32;;;;;;;17.17;1.35;;;7.90;96.50;;;;;;5038448;28;20132;-72
2022/01/17 03:02:58;;;;;;;21.83;1.95;;;7.90;96.00;;;;;;5037466;28;20508;-74
2022/01/17 03:05:23;;;;;;;18.58;1.42;;;7.90;96.00;;;;;;5035171;28;20470;-74
2022/01/17 03:07:50;;;;;;;20.55;1.50;;;7.80;96.10;;;;;;5035596;28;20109;-74
2022/01/17 03:12:48;;;;;;;12.27;1.25;;;7.70;95.80;;;;;;5035416;28;20037;-74
2022/01/17 03:15:13;;;;;;;12.40;1.48;;;7.80;96.10;;;;;;5035696;28;20518;-74
2022/01/17 03:17:40;;;;;;;16.73;1.92;;;7.70;96.10;;;;;;5035056;28;20041;-74
2022/01/17 03:20:06;;;;;;;11.32;1.10;;;7.70;96.10;;;;;;5035657;28;20025;-74
2022/01/17 03:22:33;;;;;;;22.42;1.77;;;7.70;96.30;;;;;;5035558;28;20029;-74
2022/01/17 03:24:58;;;;;;;19.05;1.50;;;7.70;96.30;;;;;;5035229;28;20120;-74
2022/01/17 03:27:24;;;;;;;14.70;1.60;;;7.60;96.50;;;;;;5035493;28;20049;-74
2022/01/17 03:29:49;;;;;;;18.13;1.67;;;7.60;96.40;;;;;;5034490;28;20036;-74
2022/01/17 03:32:15;;;;;;;15.95;1.42;;;7.60;96.50;;;;;;5035008;28;20044;-74
2022/01/17 03:34:42;;;;;;;15.48;1.50;;;7.60;96.50;;;;;;5035361;28;20489;-74
2022/01/17 03:37:08;;;;;;;15.82;1.45;;;7.50;96.60;;;;;;5034949;28;20500;-74
2022/01/17 03:39:34;;;;;;;11.80;1.83;;;7.50;96.70;;;;;;5034989;28;20033;-74
2022/01/17 03:42:00;;;;;;;13.45;1.45;;;7.50;96.90;;;;;;5035218;28;20038;-74
2022/01/17 03:44:25;;;;;;;18.60;1.48;;;7.50;97.00;;;;;;5035149;28;20076;-74
2022/01/17 03:46:51;;;;;;;16.25;1.65;;;7.40;97.10;;;;;;5035003;28;20029;-74
2022/01/17 03:49:17;;;;;;;18.15;1.80;;;7.40;97.20;;;;;;5034740;28;20461;-74
2022/01/17 03:51:42;;;;;;;21.27;1.83;;;7.40;97.20;;;;;;5034774;28;20044;-74
2022/01/17 03:54:08;;;;;;;10.07;1.17;;;7.40;97.30;;;;;;5034486;28;20033;-74
2022/01/17 03:56:33;;;;;;;11.60;1.08;;;7.40;97.40;;;;;;5034983;28;20362;-74
2022/01/17 03:58:59;;;;;;;9.30;1.00;;;7.30;97.80;;;;;;5039308;28;20026;-75
2022/01/17 04:01:25;;;;;;;15.68;1.02;;;7.30;97.60;;;;;;5037434;28;20060;-75
2022/01/17 04:03:51;;;;;;;17.15;1.38;;;7.30;97.70;;;;;;5034583;28;20033;-74
2022/01/17 04:06:17;;;;;;;19.30;1.77;;;7.30;97.50;;;;;;5034550;28;20112;-75
2022/01/17 04:08:43;;;;;;;18.85;1.95;;;7.30;97.60;;;;;;5034114;28;20020;-75
2022/01/17 04:11:09;;;;;;;16.20;2.08;;;7.20;97.60;;;;;;5034580;28;20026;-75
2022/01/17 04:13:35;;;;;;;14.52;1.08;;;7.20;97.70;;;;;;5034344;28;20040;-75
2022/01/17 04:16:02;;;;;;;14.48;1.27;;;7.10;97.80;;;;;;5034687;28;20097;-75
2022/01/17 04:18:27;;;;;;;14.35;1.17;;;7.10;98.00;;;;;;5034142;28;20463;-75
2022/01/17 04:20:53;;;;;;;15.75;1.85;;;7.10;98.10;;;;;;5034578;28;20056;-75
2022/01/17 04:23:19;;;;;;;9.77;1.02;;;7.00;98.10;;;;;;5034111;28;20025;-75
2022/01/17 04:25:45;;;;;;;15.25;2.22;;;7.00;98.10;;;;;;5034375;28;20132;-76
2022/01/17 04:28:12;;;;;;;18.45;1.50;;;7.00;98.20;;;;;;5034367;28;20049;-76
2022/01/17 04:30:39;;;;;;;18.67;1.13;;;7.00;98.20;;;;;;5033943;28;20095;-75
2022/01/17 04:33:05;;;;;;;19.98;1.40;;;7.00;98.30;;;;;;5034291;28;20033;-76
2022/01/17 04:35:32;;;;;;;20.17;1.88;;;7.00;98.40;;;;;;5033807;28;20029;-76
2022/01/17 04:38:04;;;;;;;18.02;2.55;;;7.00;98.40;;;;;;5033876;28;20045;-76
2022/01/17 04:40:35;;;;;;;23.67;2.10;;;7.00;98.50;;;;;;5033399;28;20072;-76
2022/01/17 04:43:06;;;;;;;13.98;2.17;;;6.90;98.60;;;;;;5033801;28;20025;-76
2022/01/17 04:45:32;;;;;;;12.18;1.10;;;6.80;98.80;;;;;;5033924;28;20412;-76
2022/01/17 04:47:59;;;;;;;15.68;2.13;;;6.80;99.00;;;;;;5033818;28;20073;-76
2022/01/17 04:50:29;;;;;;;14.05;2.00;;;6.80;99.30;;;;;;5034274;28;20032;-76
2022/01/17 04:52:57;;;;;;;13.90;1.00;;;6.70;99.50;;;;;;5034433;28;20381;-75
2022/01/17 04:55:24;;;;;;;23.17;1.77;;;6.70;99.60;;;;;;5043034;28;20029;-74
2022/01/17 04:57:50;;;;;;;23.67;1.40;;;6.70;99.60;;;;;;5046361;28;20040;-76
2022/01/17 05:00:19;;;;;;;13.38;1.50;;;6.80;99.70;;;;;;5037186;28;20053;-76
2022/01/17 05:02:45;;;;;;;14.88;1.27;;;6.80;99.80;;;;;;5033928;28;20034;-76
2022/01/17 05:05:12;;;;;;;19.05;1.40;;;6.80;99.90;;;;;;5033480;28;20034;-75
2022/01/17 05:07:39;;;;;;;13.35;1.58;;;6.80;99.90;;;;;;5033804;28;20088;-75
2022/01/17 05:10:11;;;;;;;15.27;1.40;;;6.80;99.90;;;;;;5033441;28;20029;-75
2022/01/17 05:12:37;;;;;;;16.45;1.80;;;6.80;99.90;;;;;;5033512;28;20064;-76
2022/01/17 05:15:05;;;;;;;13.10;1.30;;;6.80;99.90;;;;;;5033265;28;20041;-75
2022/01/17 05:20:00;;;;;;;13.55;1.63;;;6.80;99.90;;;;;;5033382;28;20025;-74
2022/01/17 05:22:31;;;;;;;17.70;1.92;;;6.80;99.90;;;;;;5033331;28;20130;-75
2022/01/17 05:24:57;;;;;;;14.25;1.48;;;6.80;99.90;;;;;;5033516;28;20041;-75
2022/01/17 05:27:22;;;;;;;20.17;1.85;;;6.80;99.90;;;;;;5033186;28;20018;-75
2022/01/17 05:29:48;;;;;;;17.55;1.90;;;6.80;99.90;;;;;;5033356;28;20151;-74
2022/01/17 05:32:14;;;;;;;13.43;1.83;;;6.80;99.90;;;;;;5033111;28;20116;-75
2022/01/17 05:34:41;;;;;;;14.68;1.98;;;6.80;99.90;;;;;;5033217;28;20021;-75
2022/01/17 05:37:08;;;;;;;16.35;1.33;;;6.80;99.90;;;;;;5032890;28;20053;-75
2022/01/17 05:39:35;;;;;;;17.05;1.60;;;6.80;99.90;;;;;;5033187;28;20028;-76
2022/01/17 05:42:01;;;;;;;15.65;1.25;;;6.80;99.90;;;;;;5033080;28;20420;-76
2022/01/17 05:44:26;;;;;;;18.48;1.73;;;6.70;99.90;;;;;;5033436;28;20079;-76
2022/01/17 05:46:52;;;;;;;15.20;1.98;;;6.80;99.90;;;;;;5033017;28;20029;-76
2022/01/17 05:49:18;;;;;;;13.93;1.98;;;6.70;99.90;;;;;;5033149;28;20021;-75
2022/01/17 05:51:43;;;;;;;11.70;1.75;;;6.70;99.90;;;;;;5033321;28;20496;-75
2022/01/17 05:54:09;;;;;;;10.52;2.00;;;6.70;99.90;;;;;;5048840;28;20025;-76
2022/01/17 05:56:34;;;;;;;11.15;1.48;;;6.70;99.90;;;;;;5046018;28;20030;-77
2022/01/17 05:59:00;;;;;;;16.92;2.33;;;6.70;99.90;;;;;;5038588;28;20075;-76
2022/01/17 06:01:26;;;;;;;15.43;1.98;;;6.70;99.90;;;;;;5036551;28;20133;-76
2022/01/17 06:03:51;;;;;;;15.30;2.42;;;6.60;99.90;;;;;;5037220;28;20373;-76
2022/01/17 06:06:17;;;;;;;13.82;2.20;;;6.70;99.90;;;;;;5036598;28;20025;-75
2022/01/17 06:08:43;;;;;;;17.35;2.50;;;6.70;99.90;;;;;;5036951;28;20060;-76
2022/01/17 06:11:09;;;;;;;17.40;2.67;;;6.60;99.90;;;;;;5036745;28;20032;-76
2022/01/17 06:13:35;;;;;;;19.70;2.97;;;6.60;99.90;;;;;;5037032;28;20029;-76
2022/01/17 06:16:03;;;;;;;15.05;2.88;;;6.70;99.90;;;;;;5036567;28;20473;-76
2022/01/17 06:18:29;;;;;;;18.58;3.25;;;6.70;99.90;;;;;;5036491;28;20033;-76
2022/01/17 06:20:55;;;;;;;15.85;3.47;;;6.70;99.90;;;;;;5036680;28;20125;-76
2022/01/17 06:23:21;;;;;;;19.05;4.05;;;6.60;99.90;;;;;;5036282;28;20033;-75
2022/01/17 06:25:46;;;;;;;17.67;3.58;;;6.60;99.90;;;;;;5036265;28;20025;-77
2022/01/17 06:28:13;;;;;;;15.38;3.53;;;6.60;99.90;;;;;;5036221;28;20025;-75
2022/01/17 06:30:38;;;;;;;18.92;4.00;;;6.60;99.90;;;;;;5036238;28;20057;-78
2022/01/17 06:33:04;;;;;;;18.20;4.82;;;6.60;99.90;;;;;;5036288;28;20080;-73
2022/01/17 06:35:30;;;;;;;22.08;5.10;;;6.60;99.90;;;;;;5036594;28;20030;-74
2022/01/17 06:37:56;;;;;;;21.10;5.30;;;6.50;99.90;;;;;;5036234;28;20030;-74
2022/01/17 06:40:22;;;;;;;22.60;5.82;;;6.50;99.90;;;;;;5036323;28;20113;-74
2022/01/17 06:42:50;;;;;;;24.42;6.40;;;6.50;99.90;;;;;;5035945;28;20416;-73
2022/01/17 06:45:18;;;;;;;17.88;5.45;;;6.50;99.90;;;;;;5036375;28;20095;-75
2022/01/17 06:47:44;;;;;;;25.70;6.28;;;6.50;99.90;;;;;;5036499;28;20029;-75
2022/01/17 06:50:11;;;;;;;24.02;6.70;;;6.40;99.90;;;;;;5036047;28;20021;-73
2022/01/17 06:52:37;;;;;;;15.13;5.82;;;6.40;99.90;;;;;;5050463;28;20037;-73
2022/01/17 06:55:03;;;;;;;18.95;5.95;;;6.40;99.90;;;;;;5034654;28;20410;-75
2022/01/17 06:57:28;;;;;;;23.70;7.00;;;6.50;99.90;;;;;;5033503;28;20036;-75
2022/01/17 06:59:55;;;;;;;22.38;6.63;;;6.50;99.90;;;;;;5039807;28;20699;-78
2022/01/17 07:02:21;;;;;;;27.77;7.95;;;6.50;99.90;;;;;;5044278;28;20021;-75
2022/01/17 07:04:49;;;;;;;28.13;7.82;;;6.50;99.90;;;;;;5033253;28;20520;-81
2022/01/17 07:07:16;;;;;;;25.20;8.98;;;6.60;99.90;;;;;;5036330;28;20033;-79
2022/01/17 07:09:41;;;;;;;22.52;8.25;;;6.60;99.90;;;;;;5035406;28;20037;-75
2022/01/17 07:12:08;;;;;;;19.80;8.85;;;6.60;99.90;;;;;;5039109;28;20062;-73
2022/01/17 07:14:41;;;;;;;28.20;9.75;;;6.60;99.90;;;;;;5055483;28;20036;-74
2022/01/17 07:17:07;;;;;;;26.10;9.88;;;6.60;99.90;;;;;;5055622;28;20120;-74
2022/01/17 07:19:33;;;;;;;28.80;10.52;;;6.60;99.90;;;;;;5037172;28;20029;-74
2022/01/17 07:21:59;;;;;;;28.88;11.63;;;6.60;99.90;;;;;;5035417;28;20432;-73
2022/01/17 07:24:24;;;;;;;24.85;10.90;;;6.60;99.90;;;;;;5035345;28;20366;-74
2022/01/17 07:26:50;;;;;;;29.77;11.63;;;6.60;99.90;;;;;;5035079;28;20025;-74
2022/01/17 07:29:16;;;;;;;25.25;11.55;;;6.60;99.90;;;;;;5044232;28;20109;-73
2022/01/17 07:31:41;;;;;;;32.72;12.38;;;6.60;99.90;;;;;;5046019;28;20036;-77
2022/01/17 07:34:09;;;;;;;28.08;11.50;;;6.60;99.90;;;;;;5043855;28;20081;-77
2022/01/17 07:36:35;;;;;;;27.85;11.25;;;6.70;99.90;;;;;;5042912;28;20032;-75
2022/01/17 07:39:00;;;;;;;33.65;12.13;;;6.70;99.90;;;;;;5038977;28;20476;-76
2022/01/17 07:41:27;;;;;;;30.33;13.07;;;6.70;99.90;;;;;;5041886;28;20162;-75
2022/01/17 07:43:53;;;;;;;34.58;12.90;;;6.70;99.90;;;;;;5049952;28;20408;-75
2022/01/17 07:46:33;;;;;;;29.58;13.65;;;6.70;99.90;;;;;;5045156;28;20040;-76
2022/01/17 07:51:35;;;;;;;40.38;13.25;;;6.70;99.90;;;;;;5061469;28;20048;-76
2022/01/17 07:54:01;;;;;;;29.40;13.25;;;6.80;99.90;;;;;;5056681;28;20112;-75
2022/01/17 07:56:27;;;;;;;34.15;13.45;;;6.80;99.90;;;;;;5053374;28;20463;-75
2022/01/17 07:58:53;;;;;;;32.47;13.68;;;6.80;99.90;;;;;;5051910;28;20461;-75
2022/01/17 08:01:20;;;;;;;32.85;13.73;;;6.70;99.90;;;;;;5052683;28;20053;-75
2022/01/17 08:03:45;;;;;;;32.67;13.90;;;6.70;99.90;;;;;;5041844;28;20040;-74
2022/01/17 08:06:11;;;;;;;36.45;14.38;;;6.70;99.90;;;;;;5043066;28;20013;-73
2022/01/17 08:08:37;;;;;;;34.75;13.43;;;6.70;99.90;;;;;;5054547;28;20025;-73
2022/01/17 08:11:03;;;;;;;32.90;14.75;;;6.80;99.90;;;;;;5054307;28;20017;-73
2022/01/17 08:13:28;;;;;;;28.38;13.65;;;6.80;99.90;;;;;;5051559;28;20040;-74
2022/01/17 08:15:55;;;;;;;29.75;13.75;;;6.80;99.90;;;;;;5046214;28;20029;-75
2022/01/17 08:18:21;;;;;;;29.70;13.48;;;6.90;99.90;;;;;;5036808;28;20029;-74
2022/01/17 08:20:47;;;;;;;31.42;13.20;;;6.80;99.90;;;;;;5049091;28;20028;-74
2022/01/17 08:23:13;;;;;;;36.45;14.10;;;6.90;99.90;;;;;;5052540;28;20170;-74
2022/01/17 08:25:39;;;;;;;30.92;14.10;;;6.90;99.90;;;;;;5052873;28;20056;-76
2022/01/17 08:28:05;;;;;;;31.17;12.73;;;6.90;99.90;;;;;;5052532;28;20063;-76
2022/01/17 08:30:32;;;;;;;30.63;12.43;;;6.90;99.90;;;;;;5052345;28;20126;-74
2022/01/17 08:32:59;;;;;;;33.15;12.70;;;7.00;99.90;;;;;;5052292;28;20041;-74
2022/01/17 08:35:25;;;;;;;34.60;13.27;;;7.10;99.90;;;;;;5051201;28;20186;-76
2022/01/17 08:37:50;;;;;;;30.73;11.88;;;7.10;99.90;;;;;;5050285;28;20516;-74
2022/01/17 08:40:18;;;;;;;33.13;12.70;;;7.10;99.90;;;;;;5052346;28;20058;-75
2022/01/17 08:42:44;;;;;;;25.23;10.88;;;7.20;99.90;;;;;;5052662;28;20167;-76
2022/01/17 08:45:12;;;;;;;29.02;11.05;;;7.30;99.90;;;;;;5052184;28;20524;-75
2022/01/17 08:47:38;;;;;;;30.42;11.32;;;7.30;99.90;;;;;;5055768;28;20058;-76
2022/01/17 08:50:06;;;;;;;30.98;10.65;;;7.30;99.90;;;;;;5062315;28;20024;-77
2022/01/17 08:52:32;;;;;;;28.55;10.55;;;7.40;99.90;;;;;;5055081;28;20037;-77
2022/01/17 08:54:58;;;;;;;27.35;9.98;;;7.40;99.90;;;;;;5052023;28;20025;-77
2022/01/17 08:57:25;;;;;;;23.40;9.30;;;7.40;99.90;;;;;;5051535;28;20029;-76
2022/01/17 08:59:51;;;;;;;26.27;9.20;;;7.40;99.90;;;;;;5051992;28;20068;-76
2022/01/17 09:02:18;;;;;;;34.80;9.60;;;7.40;99.90;;;;;;5052444;28;20041;-77
2022/01/17 09:04:43;;;;;;;25.55;10.32;;;7.50;99.90;;;;;;5052180;28;20443;-75
2022/01/17 09:07:11;;;;;;;27.30;9.10;;;7.50;99.90;;;;;;5052496;28;20060;-77
2022/01/17 09:09:39;;;;;;;27.30;9.15;;;7.50;99.90;;;;;;5050154;28;20029;-76
2022/01/17 09:12:07;;;;;;;25.10;9.68;;;7.50;99.90;;;;;;5021683;28;20045;-77
2022/01/17 09:14:33;;;;;;;25.42;9.02;;;7.50;99.90;;;;;;5032940;28;20466;-77
2022/01/17 09:16:58;;;;;;;25.33;8.45;;;7.50;99.90;;;;;;5015024;28;20041;-77
2022/01/17 09:19:24;;;;;;;23.77;8.82;;;7.60;99.90;;;;;;5052266;28;20032;-77
2022/01/17 09:21:50;;;;;;;25.50;8.77;;;7.60;99.90;;;;;;5039125;28;20035;-77
2022/01/17 09:24:16;;;;;;;29.10;8.98;;;7.70;99.90;;;;;;5051915;28;20112;-77
2022/01/17 09:26:41;;;;;;;23.23;7.63;;;7.60;99.90;;;;;;5051645;28;20035;-77
2022/01/17 09:29:07;;;;;;;24.80;7.43;;;7.70;99.90;;;;;;5051743;28;20025;-79
2022/01/17 09:31:33;;;;;;;32.78;8.98;;;7.70;99.90;;;;;;5051760;28;20083;-78
2022/01/17 09:33:58;;;;;;;21.95;6.72;;;7.80;99.90;;;;;;5051525;28;20029;-78
2022/01/17 09:36:25;;;;;;;27.52;7.85;;;7.80;99.90;;;;;;5051674;28;20025;-78
2022/01/17 09:38:52;;;;;;;20.92;7.10;;;7.90;99.90;;;;;;5051763;28;20036;-78
2022/01/17 09:41:17;;;;;;;28.73;7.35;;;7.90;99.90;;;;;;5052023;28;20388;-77
2022/01/17 09:43:43;;;;;;;32.17;7.72;;;8.00;99.90;;;;;;5052521;28;20021;-78
2022/01/17 09:46:10;;;;;;;27.60;7.30;;;7.90;99.90;;;;;;5064236;28;20040;-77
2022/01/17 09:48:38;;;;;;;25.23;7.60;;;8.00;99.90;;;;;;5056014;28;20037;-77
2022/01/17 09:51:16;;;;;;;30.50;8.25;;;8.00;99.90;;;;;;5051560;28;20591;-80
2022/01/17 09:53:43;;;;;;;23.52;6.78;;;8.00;99.90;;;;;;5051688;28;20041;-79
2022/01/17 09:56:09;;;;;;;20.35;6.22;;;8.10;99.90;;;;;;5052019;28;20025;-79
2022/01/17 09:58:38;;;;;;;30.38;6.80;;;8.10;99.90;;;;;;5044518;28;20044;-78
2022/01/17 10:01:04;;;;;;;27.02;6.45;;;8.10;99.90;;;;;;5051379;28;20381;-79
2022/01/17 10:03:30;;;;;;;24.35;6.40;;;8.10;99.90;;;;;;5038970;28;20037;-77
2022/01/17 10:05:56;;;;;;;34.95;6.03;;;8.10;99.90;;;;;;5050255;28;20071;-77
2022/01/17 10:08:22;;;;;;;28.80;6.28;;;8.10;99.90;;;;;;5051298;28;20100;-75
2022/01/17 10:11:00;;;;;;;27.50;6.03;;;8.10;99.90;;;;;;5051808;28;20033;-76
2022/01/17 10:13:45;;;;;;;21.80;6.25;;;8.10;99.90;;;;;;5051514;28;20051;-76
2022/01/17 10:16:19;;;;;;;21.58;4.80;;;8.20;99.90;;;;;;5051892;28;20064;-76
2022/01/17 10:18:53;;;;;;;26.95;5.70;;;8.20;99.90;;;;;;5052042;28;20091;-76
2022/01/17 10:21:33;;;;;;;27.33;5.38;;;8.20;99.90;;;;;;5052106;28;20099;-76
2022/01/17 10:37:22;;;;;;;29.20;4.82;;;8.40;99.90;;;;;;5054032;28;20032;-76
2022/01/17 10:40:00;;;;;;;26.92;4.80;;;8.30;99.90;;;;;;5053760;28;20040;-76
2022/01/17 10:42:41;;;;;;;25.48;4.28;;;8.40;99.90;;;;;;5043080;28;20037;-74
2022/01/17 10:45:20;;;;;;;33.22;5.07;;;8.40;99.90;;;;;;5048547;28;20033;-76
2022/01/17 10:47:48;;;;;;;23.10;4.45;;;8.40;99.90;;;;;;5047594;28;20074;-76
2022/01/17 10:50:18;;;;;;;22.05;4.78;;;8.40;99.90;;;;;;5051405;28;20484;-76
2022/01/17 10:52:50;;;;;;;21.45;3.90;;;8.40;99.90;;;;;;5054811;28;20045;-76
2022/01/17 10:55:32;;;;;;;30.70;4.88;;;8.50;99.90;;;;;;5054645;28;20423;-77
2022/01/17 10:58:02;;;;;;;21.00;3.85;;;8.50;99.90;;;;;;5054396;28;20029;-75
2022/01/17 11:00:31;;;;;;;22.00;3.70;;;8.50;99.90;;;;;;5035344;28;20045;-77
2022/01/17 11:03:01;;;;;;;30.73;4.22;;;8.60;99.90;;;;;;5035469;28;20029;-78
2022/01/17 11:05:28;;;;;;;29.13;4.35;;;8.60;99.90;;;;;;5035789;28;20029;-78
2022/01/17 11:07:58;;;;;;;32.03;5.07;;;8.60;99.90;;;;;;5035622;28;20060;-77
2022/01/17 11:10:36;;;;;;;32.70;4.55;;;8.60;99.90;;;;;;5035484;28;20056;-77
2022/01/17 11:13:05;;;;;;;36.85;4.50;;;8.70;99.90;;;;;;5035624;28;20129;-74
2022/01/17 11:15:33;;;;;;;27.48;4.25;;;8.70;99.90;;;;;;5039963;28;20071;-75
2022/01/17 11:18:16;;;;;;;24.15;4.40;;;8.70;99.90;;;;;;5049177;28;20029;-76
2022/01/17 11:20:42;;;;;;;31.85;5.03;;;8.70;99.90;;;;;;5043077;28;20028;-75
2022/01/17 11:23:08;;;;;;;27.48;4.63;;;8.70;99.90;;;;;;5053348;28;20021;-74
2022/01/17 11:25:40;;;;;;;31.38;3.72;;;8.70;99.90;;;;;;5053835;28;20025;-74
2022/01/17 11:28:06;;;;;;;21.05;3.25;;;8.70;99.90;;;;;;5033737;28;20033;-77
2022/01/17 11:30:36;;;;;;;27.00;3.80;;;8.80;99.90;;;;;;5023912;28;20509;-77
2022/01/17 11:33:04;;;;;;;25.52;3.47;;;8.80;99.90;;;;;;5024181;28;20128;-74
2022/01/17 11:35:31;;;;;;;23.67;3.92;;;8.80;99.90;;;;;;5019555;28;20029;-74
2022/01/17 11:37:59;;;;;;;20.58;2.83;;;8.90;99.90;;;;;;5026061;28;20508;-74
2022/01/17 11:40:35;;;;;;;28.00;3.95;;;8.90;99.90;;;;;;5015917;28;20033;-74
2022/01/17 11:43:32;;;;;;;24.42;3.13;;;9.00;99.90;;;;;;5018451;28;20029;-74
2022/01/17 11:46:19;;;;;;;24.35;3.10;;;9.00;99.90;;;;;;5023370;28;20041;-75
2022/01/17 11:48:51;;;;;;;18.33;3.17;;;9.00;99.90;;;;;;5039678;28;20045;-74
2022/01/17 11:51:16;;;;;;;23.42;3.78;;;9.00;99.90;;;;;;5052677;28;20025;-74
2022/01/17 11:53:45;;;;;;;19.92;2.83;;;9.10;99.90;;;;;;5053183;28;20055;-74
2022/01/17 11:56:14;;;;;;;30.75;4.18;;;9.10;99.90;;;;;;5053195;28;20028;-74
2022/01/17 11:58:42;;;;;;;26.35;3.63;;;9.20;99.90;;;;;;5053437;28;20047;-74
2022/01/17 12:01:16;;;;;;;25.70;3.17;;;9.20;99.90;;;;;;5050787;28;20731;-74
2022/01/17 12:03:56;;;;;;;25.65;3.00;;;9.20;99.90;;;;;;5051403;28;20147;-74
2022/01/17 12:06:26;;;;;;;25.27;3.65;;;9.30;99.90;;;;;;5047708;28;20025;-73
2022/01/17 12:09:19;;;;;;;26.73;2.95;;;9.30;99.90;;;;;;5051722;28;20048;-73
2022/01/17 12:11:45;;;;;;;22.70;3.67;;;9.30;99.90;;;;;;5045314;28;20056;-73
2022/01/17 12:14:33;;;;;;;26.98;3.08;;;9.30;99.90;;;;;;5044865;28;20041;-72
2022/01/17 12:17:21;;;;;;;27.90;3.35;;;9.30;99.90;;;;;;5039360;28;20052;-72
2022/01/17 12:20:05;;;;;;;28.23;3.90;;;9.30;99.90;;;;;;5041462;28;20021;-72
2022/01/17 12:22:49;;;;;;;29.80;4.18;;;9.40;99.90;;;;;;5048342;28;20037;-72
2022/01/17 12:25:22;;;;;;;23.17;3.28;;;9.40;99.90;;;;;;5042475;28;20029;-73
2022/01/17 12:27:48;;;;;;;20.02;2.90;;;9.40;99.90;;;;;;5039286;28;20086;-73
2022/01/17 12:30:15;;;;;;;33.47;4.50;;;9.40;99.90;;;;;;5041642;28;20055;-73
2022/01/17 12:32:45;;;;;;;31.25;3.33;;;9.40;99.90;;;;;;5047017;28;20040;-73
2022/01/17 12:35:17;;;;;;;23.55;2.72;;;9.50;99.90;;;;;;5042928;28;20025;-73
2022/01/17 12:37:50;;;;;;;22.25;3.10;;;9.50;99.90;;;;;;5040640;28;20960;-73
2022/01/17 12:40:32;;;;;;;;;;;9.50;99.90;;;;;;5037805;28;20040;-73
2022/01/17 12:43:08;;;;;;;31.02;3.05;;;9.50;99.90;;;;;;5045785;28;19962;-72
2022/01/17 12:45:56;;;;;;;28.13;3.67;;;9.50;99.90;;;;;;5047319;28;20087;-72
2022/01/17 12:48:24;;;;;;;25.58;2.90;;;9.50;99.90;;;;;;5044883;28;20075;-73
2022/01/17 12:50:52;;;;;;;29.25;3.17;;;9.50;99.90;;;;;;5039994;28;20029;-72
2022/01/17 12:53:24;;;;;;;26.20;2.53;;;9.50;99.90;;;;;;5045506;28;20400;-73
2022/01/17 12:55:53;;;;;;;33.92;3.92;;;9.50;99.90;;;;;;5051818;28;20545;-73
2022/01/17 12:58:25;;;;;;;27.27;3.40;;;9.50;99.90;;;;;;5052054;28;20037;-77
2022/01/17 13:00:53;;;;;;;25.63;3.85;;;9.60;99.90;;;;;;5047733;28;20043;-75
2022/01/17 13:03:21;;;;;;;37.33;3.63;;;9.60;99.90;;;;;;5051427;28;20515;-75
2022/01/17 13:05:48;;;;;;;27.20;3.08;;;9.60;99.90;;;;;;5051697;28;20037;-75
2022/01/17 13:08:15;;;;;;;29.13;3.45;;;9.60;99.90;;;;;;5051983;28;20029;-76
2022/01/17 13:10:41;;;;;;;40.72;4.88;;;9.60;99.90;;;;;;5052028;28;20032;-76
2022/01/17 13:13:07;;;;;;;34.15;3.15;;;9.60;99.90;;;;;;5052206;28;20033;-76
2022/01/17 13:15:33;;;;;;;25.05;3.22;;;9.60;99.90;;;;;;5052458;28;20021;-75
2022/01/17 13:17:58;;;;;;;31.38;4.45;;;9.70;99.90;;;;;;5051734;28;20478;-74
2022/01/17 13:20:26;;;;;;;25.98;3.08;;;9.70;99.90;;;;;;5052733;28;20419;-75
2022/01/17 13:23:07;;;;;;;31.13;3.17;;;9.70;99.90;;;;;;5051823;28;20037;-74
2022/01/17 13:25:33;;;;;;;31.70;4.13;;;9.70;99.90;;;;;;5045393;28;20123;-74
2022/01/17 13:28:02;;;;;;;30.30;3.35;;;9.70;99.90;;;;;;5052139;28;20677;-75
2022/01/17 13:30:35;;;;;;;28.63;3.67;;;9.70;99.90;;;;;;5052059;28;20017;-74